createdAt,value
2023-06-29T00:00:33.719Z,0.00
2023-06-29T00:01:33.775Z,0.00
2023-06-29T00:02:33.574Z,0.00
2023-06-29T00:03:33.643Z,0.00
2023-06-29T00:05:15.884Z,0.00
2023-06-29T00:06:15.807Z,0.00
2023-06-29T00:07:15.743Z,0.00
2023-06-29T00:08:15.647Z,0.00
2023-06-29T00:09:15.793Z,0.00
2023-06-29T00:10:15.491Z,0.00
2023-06-29T00:11:15.415Z,0.00
2023-06-29T00:12:15.336Z,0.00
2023-06-29T00:13:15.260Z,0.00
2023-06-29T00:14:17.868Z,0.00
2023-06-29T00:15:15.106Z,0.00
2023-06-29T00:18:35.054Z,0.00
2023-06-29T00:19:34.965Z,0.00
2023-06-29T00:20:36.430Z,0.00
2023-06-29T00:51:32.480Z,0.00
2023-06-29T00:52:32.387Z,0.00
2023-06-29T00:53:32.298Z,0.00
2023-06-29T00:54:32.223Z,0.00
2023-06-29T00:59:31.870Z,0.00
2023-06-29T01:00:31.858Z,0.00
2023-06-29T01:01:32.828Z,0.00
2023-06-29T01:02:32.421Z,0.00
2023-06-29T01:03:32.376Z,0.00
2023-06-29T01:11:34.149Z,0.00
2023-06-29T01:12:31.592Z,0.00
2023-06-29T01:13:30.749Z,0.00
2023-06-29T01:14:30.665Z,0.00
2023-06-29T01:15:30.586Z,0.00
2023-06-29T01:16:30.536Z,0.00
2023-06-29T01:17:30.456Z,0.00
2023-06-29T01:18:30.362Z,0.00
2023-06-29T01:19:30.274Z,0.00
2023-06-29T01:20:30.206Z,0.00
2023-06-29T01:21:30.121Z,0.00
2023-06-29T01:22:30.237Z,0.00
2023-06-29T01:23:30.014Z,0.00
2023-06-29T01:24:29.886Z,0.00
2023-06-29T01:25:29.809Z,0.00
2023-06-29T01:26:29.881Z,0.00
2023-06-29T01:27:29.754Z,0.00
2023-06-29T01:28:29.575Z,0.00
2023-06-29T01:29:29.493Z,0.00
2023-06-29T01:30:29.423Z,0.00
2023-06-29T01:31:29.377Z,0.00
2023-06-29T01:32:29.641Z,0.00
2023-06-29T01:33:29.189Z,0.00
2023-06-29T01:34:29.105Z,0.00
2023-06-29T01:35:29.029Z,0.00
2023-06-29T01:36:28.948Z,0.00
2023-06-29T01:37:28.878Z,0.00
2023-06-29T01:38:28.804Z,0.00
2023-06-29T01:39:28.716Z,0.00
2023-06-29T01:40:29.006Z,0.00
2023-06-29T01:41:28.557Z,0.00
2023-06-29T01:42:28.490Z,0.00
2023-06-29T01:43:28.477Z,0.00
2023-06-29T01:44:28.321Z,0.00
2023-06-29T01:45:28.252Z,0.00
2023-06-29T01:46:28.193Z,0.00
2023-06-29T01:47:28.105Z,0.00
2023-06-29T01:48:28.113Z,0.00
2023-06-29T01:49:27.929Z,0.00
2023-06-29T01:50:27.867Z,0.00
2023-06-29T01:51:27.785Z,0.00
2023-06-29T01:52:27.696Z,0.00
2023-06-29T01:53:28.439Z,0.00
2023-06-29T01:54:27.543Z,0.00
2023-06-29T01:55:27.659Z,0.00
2023-06-29T01:56:27.382Z,0.00
2023-06-29T01:57:27.308Z,0.00
2023-06-29T01:58:27.227Z,0.00
2023-06-29T01:59:27.272Z,0.00
2023-06-29T02:00:27.080Z,0.00
2023-06-29T02:01:27.048Z,0.00
2023-06-29T02:02:26.936Z,0.00
2023-06-29T02:03:26.967Z,0.00
2023-06-29T02:04:26.762Z,0.00
2023-06-29T02:05:26.678Z,0.00
2023-06-29T02:06:29.235Z,0.00
2023-06-29T02:07:26.755Z,0.00
2023-06-29T02:08:26.490Z,0.00
2023-06-29T02:10:27.063Z,0.00
2023-06-29T02:11:26.484Z,0.00
2023-06-29T02:12:39.102Z,0.00
2023-06-29T02:14:26.012Z,0.00
2023-06-29T02:20:26.414Z,0.00
2023-06-29T02:30:25.686Z,0.00
2023-06-29T02:38:25.258Z,0.00
2023-06-29T02:48:23.554Z,4.00
2023-06-29T02:49:23.880Z,4.00
2023-06-29T02:50:23.600Z,0.00
2023-06-29T03:09:23.185Z,36.00
2023-06-29T03:24:21.237Z,132.00
2023-06-29T03:36:24.038Z,248.00
2023-06-29T04:06:17.649Z,620.00
2023-06-29T04:44:27.047Z,944.00
2023-06-29T04:49:13.887Z,1020.00
2023-06-29T04:50:13.777Z,1032.00
2023-06-29T04:51:13.703Z,1036.00
2023-06-29T04:52:13.617Z,1040.00
2023-06-29T04:53:13.797Z,1048.00
2023-06-29T04:54:13.469Z,1056.00
2023-06-29T04:55:13.385Z,1060.00
2023-06-29T04:56:13.307Z,1068.00
2023-06-29T04:57:13.256Z,1072.00
2023-06-29T04:58:13.155Z,1076.00
2023-06-29T04:59:13.077Z,1084.00
2023-06-29T05:00:13.024Z,1084.00
2023-06-29T05:01:12.957Z,1092.00
2023-06-29T05:02:12.957Z,1092.00
2023-06-29T05:03:12.907Z,1100.00
2023-06-29T05:04:12.726Z,1104.00
2023-06-29T05:05:13.109Z,1112.00
2023-06-29T05:06:12.577Z,1116.00
2023-06-29T05:08:12.976Z,1128.00
2023-06-29T05:10:12.269Z,1144.00
2023-06-29T05:11:12.917Z,1152.00
2023-06-29T05:20:11.495Z,1208.00
2023-06-29T05:21:11.388Z,1212.00
2023-06-29T05:22:11.321Z,1220.00
2023-06-29T05:23:11.242Z,1224.00
2023-06-29T05:24:11.400Z,1232.00
2023-06-29T05:32:14.388Z,1268.00
2023-06-29T05:33:10.503Z,1276.00
2023-06-29T05:34:10.396Z,1284.00
2023-06-29T05:35:10.326Z,1292.00
2023-06-29T05:36:10.353Z,1300.00
2023-06-29T05:37:10.182Z,1308.00
2023-06-29T05:38:10.101Z,1312.00
2023-06-29T05:39:10.016Z,1324.00
2023-06-29T05:42:45.589Z,1348.00
2023-06-29T05:43:45.512Z,1360.00
2023-06-29T05:44:45.441Z,1376.00
2023-06-29T05:45:45.416Z,1388.00
2023-06-29T05:46:45.282Z,1400.00
2023-06-29T05:47:45.316Z,1408.00
2023-06-29T05:48:45.142Z,1412.00
2023-06-29T05:49:45.214Z,1420.00
2023-06-29T05:50:45.204Z,1424.00
2023-06-29T05:53:44.826Z,1412.00
2023-06-29T05:54:44.679Z,1384.00
2023-06-29T05:55:44.842Z,1448.00
2023-06-29T06:02:44.160Z,1400.00
2023-06-29T06:03:44.096Z,1392.00
2023-06-29T06:04:43.942Z,1392.00
2023-06-29T06:05:43.857Z,1396.00
2023-06-29T06:06:43.796Z,1400.00
2023-06-29T06:07:43.711Z,1396.00
2023-06-29T06:08:43.633Z,1384.00
2023-06-29T06:09:43.644Z,1376.00
2023-06-29T06:10:43.815Z,1376.00
2023-06-29T06:11:43.408Z,1380.00
2023-06-29T06:12:43.591Z,1380.00
2023-06-29T06:13:43.259Z,1380.00
2023-06-29T06:14:43.190Z,1384.00
2023-06-29T06:16:25.620Z,1388.00
2023-06-29T06:17:25.632Z,1388.00
2023-06-29T06:18:25.475Z,1384.00
2023-06-29T06:19:25.371Z,1384.00
2023-06-29T06:20:25.301Z,1392.00
2023-06-29T06:21:25.227Z,1392.00
2023-06-29T06:22:25.178Z,1400.00
2023-06-29T06:23:26.285Z,1408.00
2023-06-29T06:26:24.909Z,1412.00
2023-06-29T06:27:24.841Z,1412.00
2023-06-29T06:28:24.705Z,1408.00
2023-06-29T06:29:24.628Z,1408.00
2023-06-29T06:30:24.825Z,1408.00
2023-06-29T06:31:33.497Z,1400.00
2023-06-29T06:32:24.430Z,1400.00
2023-06-29T06:33:24.334Z,1404.00
2023-06-29T06:34:24.254Z,1396.00
2023-06-29T06:35:24.183Z,1356.00
2023-06-29T06:36:24.108Z,1364.00
2023-06-29T06:37:24.038Z,1344.00
2023-06-29T06:38:27.361Z,1396.00
2023-06-29T06:39:23.985Z,1432.00
2023-06-29T06:40:23.811Z,1484.00
2023-06-29T06:41:23.744Z,1480.00
2023-06-29T06:42:23.692Z,1484.00
2023-06-29T06:43:23.589Z,1508.00
2023-06-29T06:44:23.517Z,1516.00
2023-06-29T06:45:23.448Z,1524.00
2023-06-29T06:48:05.900Z,1520.00
2023-06-29T06:49:05.716Z,1520.00
2023-06-29T06:50:05.652Z,1520.00
2023-06-29T06:51:05.558Z,1528.00
2023-06-29T06:52:05.488Z,1532.00
2023-06-29T06:53:05.421Z,1536.00
2023-06-29T06:54:05.337Z,1544.00
2023-06-29T06:55:05.525Z,1552.00
2023-06-29T06:56:05.195Z,1548.00
2023-06-29T06:57:05.117Z,1556.00
2023-06-29T06:58:05.148Z,1564.00
2023-06-29T06:59:04.970Z,1568.00
2023-06-29T07:00:04.908Z,1576.00
2023-06-29T07:01:04.858Z,1580.00
2023-06-29T07:02:04.797Z,1588.00
2023-06-29T07:03:04.852Z,1584.00
2023-06-29T07:04:04.603Z,1588.00
2023-06-29T07:05:04.535Z,1592.00
2023-06-29T07:06:04.460Z,1604.00
2023-06-29T07:07:04.416Z,1608.00
2023-06-29T07:08:04.336Z,1620.00
2023-06-29T07:09:07.879Z,1624.00
2023-06-29T07:10:04.170Z,1632.00
2023-06-29T07:11:04.105Z,1644.00
2023-06-29T07:12:04.057Z,1660.00
2023-06-29T07:13:03.948Z,1672.00
2023-06-29T07:14:03.898Z,1680.00
2023-06-29T07:15:03.813Z,1688.00
2023-06-29T07:16:03.743Z,1704.00
2023-06-29T07:17:03.767Z,1712.00
2023-06-29T07:18:03.638Z,1724.00
2023-06-29T07:21:16.927Z,1732.00
2023-06-29T07:25:03.079Z,1804.00
2023-06-29T07:27:02.933Z,1828.00
2023-06-29T07:28:04.086Z,1832.00
2023-06-29T07:29:02.789Z,1840.00
2023-06-29T07:30:02.929Z,1852.00
2023-06-29T07:31:03.486Z,1860.00
2023-06-29T07:32:02.573Z,1864.00
2023-06-29T07:33:02.612Z,1872.00
2023-06-29T07:34:02.431Z,1892.00
2023-06-29T07:35:02.345Z,1892.00
2023-06-29T07:36:02.282Z,1896.00
2023-06-29T07:37:02.314Z,1908.00
2023-06-29T07:38:02.136Z,1912.00
2023-06-29T07:39:02.072Z,1924.00
2023-06-29T07:40:01.989Z,1932.00
2023-06-29T07:41:01.917Z,1940.00
2023-06-29T07:42:01.900Z,1948.00
2023-06-29T07:43:01.790Z,1956.00
2023-06-29T07:44:01.720Z,1964.00
2023-06-29T07:45:01.631Z,1964.00
2023-06-29T07:46:01.653Z,1976.00
2023-06-29T07:47:01.555Z,1996.00
2023-06-29T07:48:01.531Z,2004.00
2023-06-29T07:49:01.422Z,2008.00
2023-06-29T07:50:01.275Z,2024.00
2023-06-29T07:51:01.197Z,2032.00
2023-06-29T07:52:01.122Z,2048.00
2023-06-29T07:53:01.105Z,2064.00
2023-06-29T07:54:00.981Z,2080.00
2023-06-29T07:55:01.303Z,2096.00
2023-06-29T07:56:00.841Z,2116.00
2023-06-29T07:59:00.618Z,2248.00
2023-06-29T08:00:00.545Z,2308.00
2023-06-29T08:01:00.526Z,2384.00
2023-06-29T08:02:00.526Z,2460.00
2023-06-29T08:03:00.383Z,2548.00
2023-06-29T08:04:03.857Z,2600.00
2023-06-29T08:07:00.166Z,2664.00
2023-06-29T08:08:00.012Z,2724.00
2023-06-29T08:09:00.003Z,2796.00
2023-06-29T08:09:59.824Z,2832.00
2023-06-29T08:10:59.750Z,2808.00
2023-06-29T08:11:59.780Z,2812.00
2023-06-29T08:12:59.611Z,2776.00
2023-06-29T08:13:59.541Z,2760.00
2023-06-29T08:14:59.463Z,2824.00
2023-06-29T08:15:59.411Z,2952.00
2023-06-29T08:16:59.396Z,2996.00
2023-06-29T08:17:59.320Z,3056.00
2023-06-29T08:18:59.281Z,3080.00
2023-06-29T08:19:59.110Z,3164.00
2023-06-29T08:20:59.034Z,3128.00
2023-06-29T08:21:58.972Z,2980.00
2023-06-29T08:22:58.893Z,3124.00
2023-06-29T08:23:58.823Z,3240.00
2023-06-29T08:24:58.749Z,3280.00
2023-06-29T08:25:58.677Z,3408.00
2023-06-29T08:26:58.621Z,3540.00
2023-06-29T08:27:58.534Z,3664.00
2023-06-29T08:28:58.467Z,3660.00
2023-06-29T08:29:58.395Z,3684.00
2023-06-29T08:30:58.332Z,3696.00
2023-06-29T08:31:58.348Z,3672.00
2023-06-29T08:32:58.253Z,3756.00
2023-06-29T08:33:58.168Z,3804.00
2023-06-29T08:34:58.039Z,3964.00
2023-06-29T08:35:57.967Z,4100.00
2023-06-29T08:36:57.950Z,4156.00
2023-06-29T08:37:57.823Z,4180.00
2023-06-29T08:38:57.746Z,4228.00
2023-06-29T08:39:57.710Z,4132.00
2023-06-29T08:40:57.618Z,3920.00
2023-06-29T08:43:00.044Z,3672.00
2023-06-29T08:43:59.971Z,3492.00
2023-06-29T08:44:59.897Z,3208.00
2023-06-29T08:45:59.895Z,3068.00
2023-06-29T08:46:59.772Z,3016.00
2023-06-29T08:47:59.700Z,2968.00
2023-06-29T08:48:59.606Z,3032.00
2023-06-29T08:49:59.555Z,3136.00
2023-06-29T08:50:59.463Z,3136.00
2023-06-29T08:51:59.391Z,3112.00
2023-06-29T08:52:59.343Z,3196.00
2023-06-29T08:53:59.249Z,3184.00
2023-06-29T08:54:59.188Z,3180.00
2023-06-29T08:55:59.107Z,3188.00
2023-06-29T08:56:59.038Z,3204.00
2023-06-29T08:57:59.364Z,3204.00
2023-06-29T08:58:59.125Z,3220.00
2023-06-29T08:59:58.825Z,3208.00
2023-06-29T09:00:58.795Z,3212.00
2023-06-29T09:01:58.709Z,3196.00
2023-06-29T09:02:58.677Z,3188.00
2023-06-29T09:03:58.724Z,3184.00
2023-06-29T09:04:58.474Z,3144.00
2023-06-29T09:05:58.440Z,3204.00
2023-06-29T09:06:58.460Z,3320.00
2023-06-29T09:07:58.264Z,3460.00
2023-06-29T09:08:58.312Z,3576.00
2023-06-29T09:09:58.120Z,3592.00
2023-06-29T09:10:58.048Z,3700.00
2023-06-29T09:11:57.969Z,3812.00
2023-06-29T09:12:57.909Z,4056.00
2023-06-29T09:13:57.822Z,4244.00
2023-06-29T09:14:57.753Z,4424.00
2023-06-29T09:15:57.707Z,4540.00
2023-06-29T09:16:57.609Z,4612.00
2023-06-29T09:17:57.609Z,4660.00
2023-06-29T09:19:00.085Z,4952.00
2023-06-29T09:19:57.400Z,5392.00
2023-06-29T09:20:57.322Z,5592.00
2023-06-29T09:21:57.274Z,5932.00
2023-06-29T09:22:57.191Z,6068.00
2023-06-29T09:23:57.130Z,6248.00
2023-06-29T09:25:57.231Z,6208.00
2023-06-29T09:26:56.949Z,6364.00
2023-06-29T09:27:56.891Z,6336.00
2023-06-29T09:28:56.755Z,6436.00
2023-06-29T09:29:56.719Z,6456.00
2023-06-29T09:30:56.680Z,6416.00
2023-06-29T09:31:57.201Z,6420.00
2023-06-29T09:33:43.964Z,6516.00
2023-06-29T09:34:44.504Z,6808.00
2023-06-29T09:35:43.872Z,7056.00
2023-06-29T09:36:43.761Z,7160.00
2023-06-29T09:37:43.708Z,7500.00
2023-06-29T09:38:43.609Z,7912.00
2023-06-29T09:41:01.055Z,7896.00
2023-06-29T09:42:01.019Z,7732.00
2023-06-29T09:43:00.913Z,8024.00
2023-06-29T09:44:00.844Z,8380.00
2023-06-29T09:45:00.811Z,8780.00
2023-06-29T09:46:01.915Z,9408.00
2023-06-29T09:50:00.627Z,9656.00
2023-06-29T09:51:00.538Z,10060.00
2023-06-29T09:52:00.279Z,10524.00
2023-06-29T09:53:00.316Z,10888.00
2023-06-29T09:54:00.342Z,11112.00
2023-06-29T09:55:00.072Z,11076.00
2023-06-29T09:56:00.019Z,11376.00
2023-06-29T09:56:59.932Z,11652.00
2023-06-29T09:57:59.870Z,11380.00
2023-06-29T09:58:59.794Z,10944.00
2023-06-29T09:59:59.722Z,10820.00
2023-06-29T10:01:00.095Z,10444.00
2023-06-29T10:01:59.635Z,10432.00
2023-06-29T10:02:59.602Z,11032.00
2023-06-29T10:03:59.495Z,11904.00
2023-06-29T10:04:59.411Z,12012.00
2023-06-29T10:05:59.319Z,12036.00
2023-06-29T10:06:59.291Z,11812.00
2023-06-29T10:07:59.165Z,11428.00
2023-06-29T10:08:59.121Z,11204.00
2023-06-29T10:09:59.034Z,10664.00
2023-06-29T10:11:00.795Z,10344.00
2023-06-29T10:11:58.892Z,9936.00
2023-06-29T10:12:58.821Z,9380.00
2023-06-29T10:13:58.748Z,8944.00
2023-06-29T10:14:58.686Z,8576.00
2023-06-29T10:15:58.612Z,8260.00
2023-06-29T10:16:58.610Z,7428.00
2023-06-29T10:17:58.513Z,7076.00
2023-06-29T10:18:58.405Z,7492.00
2023-06-29T10:19:58.392Z,8360.00
2023-06-29T10:20:58.264Z,9124.00
2023-06-29T10:21:58.193Z,9412.00
2023-06-29T10:22:58.140Z,9380.00
2023-06-29T10:23:58.070Z,9492.00
2023-06-29T10:24:58.051Z,9432.00
2023-06-29T10:25:57.916Z,9384.00
2023-06-29T10:26:57.845Z,9624.00
2023-06-29T10:27:57.832Z,10164.00
2023-06-29T10:28:57.713Z,10736.00
2023-06-29T10:29:57.689Z,11508.00
2023-06-29T10:30:57.637Z,12004.00
2023-06-29T10:31:57.502Z,12356.00
2023-06-29T10:32:57.479Z,12696.00
2023-06-29T10:33:57.361Z,13016.00
2023-06-29T10:34:57.292Z,13196.00
2023-06-29T10:35:57.230Z,13096.00
2023-06-29T10:36:57.174Z,12724.00
2023-06-29T10:37:57.089Z,11576.00
2023-06-29T10:38:57.017Z,11120.00
2023-06-29T10:39:56.949Z,11660.00
2023-06-29T10:40:56.897Z,12012.00
2023-06-29T10:41:56.809Z,12304.00
2023-06-29T10:42:56.849Z,12632.00
2023-06-29T10:43:56.768Z,12644.00
2023-06-29T10:44:56.659Z,12940.00
2023-06-29T10:45:56.545Z,12924.00
2023-06-29T10:46:56.719Z,12944.00
2023-06-29T10:47:56.472Z,13600.00
2023-06-29T10:48:56.330Z,14164.00
2023-06-29T10:49:56.269Z,14068.00
2023-06-29T10:50:56.190Z,13468.00
2023-06-29T10:51:56.128Z,12780.00
2023-06-29T10:52:56.057Z,11876.00
2023-06-29T10:53:55.993Z,11364.00
2023-06-29T10:54:55.949Z,12112.00
2023-06-29T10:55:55.848Z,12632.00
2023-06-29T10:56:55.807Z,12912.00
2023-06-29T10:57:55.714Z,13748.00
2023-06-29T10:58:55.661Z,14292.00
2023-06-29T10:59:55.642Z,13220.00
2023-06-29T11:00:55.520Z,11856.00
2023-06-29T11:01:55.543Z,11632.00
2023-06-29T11:02:55.513Z,12272.00
2023-06-29T11:03:55.412Z,13392.00
2023-06-29T11:04:55.233Z,13452.00
2023-06-29T11:05:55.165Z,12988.00
2023-06-29T11:06:55.145Z,12900.00
2023-06-29T11:10:20.733Z,12672.00
2023-06-29T11:11:20.750Z,12336.00
2023-06-29T11:12:20.670Z,12104.00
2023-06-29T11:13:20.514Z,12264.00
2023-06-29T11:14:20.493Z,12800.00
2023-06-29T11:16:20.337Z,13192.00
2023-06-29T11:17:20.212Z,13700.00
2023-06-29T11:18:20.516Z,12984.00
2023-06-29T11:19:20.075Z,12728.00
2023-06-29T11:21:07.499Z,11596.00
2023-06-29T11:22:07.432Z,10584.00
2023-06-29T11:23:07.367Z,9876.00
2023-06-29T11:24:07.294Z,8560.00
2023-06-29T11:25:07.225Z,7756.00
2023-06-29T11:26:07.158Z,7736.00
2023-06-29T11:27:07.086Z,8280.00
2023-06-29T11:28:07.045Z,9012.00
2023-06-29T11:29:06.953Z,9888.00
2023-06-29T11:30:06.877Z,10832.00
2023-06-29T11:31:06.888Z,12164.00
2023-06-29T11:32:06.848Z,12292.00
2023-06-29T11:34:06.604Z,13860.00
2023-06-29T11:35:06.534Z,11848.00
2023-06-29T11:36:06.561Z,12020.00
2023-06-29T11:38:06.363Z,8516.00
2023-06-29T11:39:06.275Z,8044.00
2023-06-29T11:40:06.192Z,7432.00
2023-06-29T11:41:06.338Z,7140.00
2023-06-29T11:42:06.080Z,6928.00
2023-06-29T11:43:06.057Z,6768.00
2023-06-29T11:44:05.971Z,6668.00
2023-06-29T11:45:05.848Z,6444.00
2023-06-29T11:46:05.808Z,6252.00
2023-06-29T11:47:25.601Z,6168.00
2023-06-29T11:48:05.679Z,6108.00
2023-06-29T11:49:05.661Z,5904.00
2023-06-29T11:50:05.504Z,5568.00
2023-06-29T11:51:05.448Z,5156.00
2023-06-29T11:52:05.367Z,4756.00
2023-06-29T11:53:05.305Z,4484.00
2023-06-29T11:54:05.234Z,4368.00
2023-06-29T12:07:55.233Z,4800.00
2023-06-29T12:08:54.801Z,4936.00
2023-06-29T12:09:54.709Z,5108.00
2023-06-29T12:10:54.643Z,5148.00
2023-06-29T12:11:54.548Z,5088.00
2023-06-29T12:12:54.480Z,5040.00
2023-06-29T12:13:54.410Z,5008.00
2023-06-29T12:14:54.336Z,4972.00
2023-06-29T12:18:00.082Z,3960.00
2023-06-29T12:18:54.165Z,3452.00
2023-06-29T12:20:09.157Z,3112.00
2023-06-29T12:20:54.121Z,2936.00
2023-06-29T12:21:54.327Z,2860.00
2023-06-29T12:22:53.777Z,2904.00
2023-06-29T12:23:54.046Z,2992.00
2023-06-29T12:24:53.638Z,3092.00
2023-06-29T12:25:53.564Z,3204.00
2023-06-29T12:26:53.492Z,3296.00
2023-06-29T12:27:53.427Z,3368.00
2023-06-29T12:28:53.355Z,3456.00
2023-06-29T12:29:53.283Z,3660.00
2023-06-29T12:30:53.223Z,3996.00
2023-06-29T12:31:53.222Z,4364.00
2023-06-29T12:32:53.082Z,4800.00
2023-06-29T12:33:53.000Z,5272.00
2023-06-29T12:34:53.158Z,5756.00
2023-06-29T12:35:52.880Z,6024.00
2023-06-29T12:36:52.785Z,5876.00
2023-06-29T12:37:52.724Z,5528.00
2023-06-29T12:38:52.664Z,5072.00
2023-06-29T12:39:52.597Z,4636.00
2023-06-29T12:40:52.515Z,4256.00
2023-06-29T12:41:52.433Z,3932.00
2023-06-29T12:42:52.369Z,3644.00
2023-06-29T12:43:52.305Z,3384.00
2023-06-29T12:44:52.222Z,3180.00
2023-06-29T12:45:52.154Z,2992.00
2023-06-29T12:46:52.140Z,2820.00
2023-06-29T12:47:52.018Z,2724.00
2023-06-29T12:48:51.940Z,2640.00
2023-06-29T12:49:51.889Z,2524.00
2023-06-29T12:50:51.798Z,2420.00
2023-06-29T12:51:51.731Z,2300.00
2023-06-29T12:52:51.665Z,2156.00
2023-06-29T12:53:51.587Z,2000.00
2023-06-29T12:54:51.523Z,1812.00
2023-06-29T12:55:51.466Z,1660.00
2023-06-29T12:56:51.417Z,1576.00
2023-06-29T12:57:51.304Z,1548.00
2023-06-29T12:58:51.246Z,1572.00
2023-06-29T12:59:51.163Z,1624.00
2023-06-29T13:00:51.127Z,1696.00
2023-06-29T13:01:51.050Z,1792.00
2023-06-29T13:02:51.031Z,1884.00
2023-06-29T13:03:51.049Z,1956.00
2023-06-29T13:04:50.812Z,2052.00
2023-06-29T13:05:50.979Z,2164.00
2023-06-29T13:06:50.715Z,2212.00
2023-06-29T13:07:50.632Z,2276.00
2023-06-29T13:08:50.530Z,2380.00
2023-06-29T13:09:50.492Z,2504.00
2023-06-29T13:10:50.413Z,2620.00
2023-06-29T13:11:50.329Z,2700.00
2023-06-29T13:12:50.233Z,2744.00
2023-06-29T13:13:50.164Z,2764.00
2023-06-29T13:14:50.093Z,2772.00
2023-06-29T13:15:50.048Z,2864.00
2023-06-29T13:16:49.984Z,3048.00
2023-06-29T13:17:49.913Z,3304.00
2023-06-29T13:18:49.809Z,3580.00
2023-06-29T13:19:49.783Z,3904.00
2023-06-29T13:20:49.663Z,4228.00
2023-06-29T13:21:49.637Z,4596.00
2023-06-29T13:22:49.524Z,5012.00
2023-06-29T13:23:49.550Z,5252.00
2023-06-29T13:24:49.376Z,5564.00
2023-06-29T13:25:49.455Z,6080.00
2023-06-29T13:26:49.234Z,6756.00
2023-06-29T13:27:49.203Z,7572.00
2023-06-29T13:28:49.100Z,8528.00
2023-06-29T13:29:49.017Z,9592.00
2023-06-29T13:30:48.972Z,10948.00
2023-06-29T13:31:48.882Z,12380.00
2023-06-29T13:32:48.881Z,13888.00
2023-06-29T13:33:48.736Z,15040.00
2023-06-29T13:34:48.664Z,16576.00
2023-06-29T13:35:48.874Z,16992.00
2023-06-29T13:36:48.520Z,16704.00
2023-06-29T13:37:48.507Z,17024.00
2023-06-29T13:38:48.385Z,17664.00
2023-06-29T13:39:49.430Z,16928.00
2023-06-29T13:40:48.238Z,17536.00
2023-06-29T13:41:48.572Z,18368.00
2023-06-29T13:42:48.092Z,19712.00
2023-06-29T13:43:48.053Z,23072.00
2023-06-29T13:44:47.957Z,32000.00
2023-06-29T13:45:50.021Z,23200.00
2023-06-29T13:46:47.829Z,23552.00
2023-06-29T13:48:30.367Z,38464.00
2023-06-29T13:49:30.174Z,32480.00
2023-06-29T13:54:44.027Z,50880.00
2023-06-29T13:55:44.359Z,45696.00
2023-06-29T13:56:43.831Z,50304.00
2023-06-29T13:57:43.740Z,50912.00
2023-06-29T13:58:44.012Z,41632.00
2023-06-29T13:59:43.634Z,48992.00
2023-06-29T14:00:43.545Z,35232.00
2023-06-29T14:01:43.511Z,33120.00
2023-06-29T14:02:43.529Z,41344.00
2023-06-29T14:03:43.443Z,20352.00
2023-06-29T14:04:43.291Z,15812.00
2023-06-29T14:05:43.483Z,13556.00
2023-06-29T14:06:43.464Z,11604.00
2023-06-29T14:07:43.091Z,10224.00
2023-06-29T14:08:43.028Z,8824.00
2023-06-29T14:09:42.968Z,7648.00
2023-06-29T14:10:42.914Z,6532.00
2023-06-29T14:11:42.832Z,5648.00
2023-06-29T14:12:42.777Z,4936.00
2023-06-29T14:13:42.698Z,4404.00
2023-06-29T14:14:42.631Z,4072.00
2023-06-29T14:15:42.579Z,3792.00
2023-06-29T14:17:25.685Z,3684.00
2023-06-29T14:18:27.674Z,3696.00
2023-06-29T14:19:24.860Z,3828.00
2023-06-29T14:20:24.789Z,4096.00
2023-06-29T14:21:24.721Z,4352.00
2023-06-29T14:22:24.656Z,4528.00
2023-06-29T14:23:24.635Z,4720.00
2023-06-29T14:24:24.520Z,4872.00
2023-06-29T14:25:25.259Z,5468.00
2023-06-29T14:26:24.426Z,6540.00
2023-06-29T14:27:25.126Z,8672.00
2023-06-29T15:12:56.196Z,13208.00
2023-06-29T15:13:56.053Z,12424.00
2023-06-29T15:14:55.993Z,13616.00
2023-06-29T15:15:55.937Z,12368.00
2023-06-29T15:16:55.851Z,11764.00
2023-06-29T15:17:55.900Z,11712.00
2023-06-29T15:19:00.112Z,13208.00
2023-06-29T15:19:55.648Z,13612.00
2023-06-29T15:20:55.586Z,14784.00
2023-06-29T15:21:55.513Z,17056.00
2023-06-29T15:22:55.460Z,19648.00
2023-06-29T15:23:55.602Z,14084.00
2023-06-29T15:24:55.522Z,16384.00
2023-06-29T15:25:55.247Z,20096.00
2023-06-29T15:26:55.178Z,14488.00
2023-06-29T15:27:55.114Z,12584.00
2023-06-29T15:28:55.067Z,10800.00
2023-06-29T15:29:54.979Z,10660.00
2023-06-29T15:30:55.296Z,11176.00
2023-06-29T15:31:55.007Z,9024.00
2023-06-29T15:32:54.830Z,8648.00
2023-06-29T15:33:54.710Z,8828.00
2023-06-29T15:34:54.651Z,9016.00
2023-06-29T15:35:54.632Z,9316.00
2023-06-29T15:36:54.807Z,9664.00
2023-06-29T15:37:54.445Z,10364.00
2023-06-29T15:38:54.680Z,9656.00
2023-06-29T15:39:54.305Z,10364.00
2023-06-29T15:40:54.855Z,11372.00
2023-06-29T15:41:54.169Z,11972.00
2023-06-29T15:42:54.152Z,13760.00
2023-06-29T15:43:54.032Z,14088.00
2023-06-29T15:44:53.985Z,14828.00
2023-06-29T15:45:53.892Z,13588.00
2023-06-29T15:46:53.880Z,14384.00
2023-06-29T15:47:53.858Z,14104.00
2023-06-29T15:48:53.748Z,17216.00
2023-06-29T15:49:53.645Z,15200.00
2023-06-29T15:50:53.579Z,16000.00
2023-06-29T15:51:53.536Z,14004.00
2023-06-29T15:52:53.544Z,12844.00
2023-06-29T15:53:53.397Z,10084.00
2023-06-29T15:54:53.284Z,8980.00
2023-06-29T15:55:53.216Z,8164.00
2023-06-29T15:56:53.149Z,7436.00
2023-06-29T15:57:53.090Z,6884.00
2023-06-29T15:58:53.015Z,6288.00
2023-06-29T15:59:52.956Z,5692.00
2023-06-29T16:00:55.763Z,5340.00
2023-06-29T16:01:52.845Z,5056.00
2023-06-29T16:02:52.798Z,4760.00
2023-06-29T16:03:52.773Z,4624.00
2023-06-29T16:04:52.638Z,4664.00
2023-06-29T16:05:52.539Z,4800.00
2023-06-29T16:06:52.517Z,5000.00
2023-06-29T16:07:52.402Z,5244.00
2023-06-29T16:08:52.689Z,5556.00
2023-06-29T16:09:52.277Z,5708.00
2023-06-29T16:13:53.003Z,5428.00
2023-06-29T16:14:52.911Z,5432.00
2023-06-29T16:15:52.811Z,5328.00
2023-06-29T16:16:52.813Z,5220.00
2023-06-29T16:17:52.736Z,5116.00
2023-06-29T16:18:52.607Z,5120.00
2023-06-29T16:19:52.539Z,5140.00
2023-06-29T16:20:52.468Z,4888.00
2023-06-29T16:21:52.397Z,4652.00
2023-06-29T16:22:52.407Z,4600.00
2023-06-29T16:23:52.266Z,4592.00
2023-06-29T16:24:52.343Z,4660.00
2023-06-29T16:25:52.121Z,5540.00
2023-06-29T16:26:52.086Z,5320.00
2023-06-29T16:27:51.994Z,5648.00
2023-06-29T16:28:51.920Z,5844.00
2023-06-29T16:29:51.848Z,6272.00
2023-06-29T16:30:51.838Z,6728.00
2023-06-29T16:31:52.063Z,7320.00
2023-06-29T16:32:51.707Z,7748.00
2023-06-29T16:33:51.597Z,7888.00
2023-06-29T16:34:51.497Z,7688.00
2023-06-29T16:35:51.429Z,7664.00
2023-06-29T16:36:51.440Z,8100.00
2023-06-29T16:37:51.301Z,8732.00
2023-06-29T16:38:51.222Z,9644.00
2023-06-29T16:39:51.203Z,9556.00
2023-06-29T16:40:51.082Z,11216.00
2023-06-29T16:41:51.017Z,10452.00
2023-06-29T16:42:50.944Z,10020.00
2023-06-29T16:43:50.875Z,9372.00
2023-06-29T16:44:50.807Z,8852.00
2023-06-29T16:45:50.734Z,8560.00
2023-06-29T16:46:50.840Z,10048.00
2023-06-29T16:47:50.673Z,12564.00
2023-06-29T16:48:50.701Z,14176.00
2023-06-29T16:49:50.472Z,14848.00
2023-06-29T16:50:50.455Z,13408.00
2023-06-29T16:51:50.328Z,13736.00
2023-06-29T16:52:50.253Z,12792.00
2023-06-29T16:53:50.184Z,10268.00
2023-06-29T16:54:50.117Z,9260.00
2023-06-29T16:55:50.047Z,8628.00
2023-06-29T16:56:49.978Z,9616.00
2023-06-29T16:57:49.953Z,9444.00
2023-06-29T16:58:49.847Z,8020.00
2023-06-29T16:59:49.782Z,5464.00
2023-06-29T17:00:49.785Z,5020.00
2023-06-29T17:01:49.753Z,4928.00
2023-06-29T17:02:49.610Z,4840.00
2023-06-29T17:03:49.609Z,4688.00
2023-06-29T17:04:49.456Z,4700.00
2023-06-29T17:05:49.361Z,4792.00
2023-06-29T17:06:49.297Z,4908.00
2023-06-29T17:07:49.234Z,5108.00
2023-06-29T17:08:49.515Z,5400.00
2023-06-29T17:09:49.107Z,5804.00
2023-06-29T17:10:49.030Z,6116.00
2023-06-29T17:11:48.957Z,6564.00
2023-06-29T17:12:48.931Z,6900.00
2023-06-29T17:13:48.830Z,7252.00
2023-06-29T17:14:48.753Z,7444.00
2023-06-29T17:15:49.248Z,7448.00
2023-06-29T17:16:48.689Z,7244.00
2023-06-29T17:17:48.717Z,6732.00
2023-06-29T17:18:48.519Z,6116.00
2023-06-29T17:19:48.404Z,5636.00
2023-06-29T17:20:48.351Z,5500.00